Time;durP1;ratioP1;P1;durP2;ratioP2;P2;SDS_P1;SDS_P2;PMS_P1;PMS_P2;Temp;Humidity;BMP_temperature;BMP_pressure;BME280_temperature;BME280_humidity;BME280_pressure;Samples;Min_cycle;Max_cycle;Signal;HPM_P1;HPM_P2
2022/08/05 00:00:10;;;;;;;5.38;4.88;;;;;;;24.13;66.00;97685.72;5061763;28;20222;-72
2022/08/05 00:02:37;;;;;;;5.88;5.10;;;;;;;24.08;66.21;97688.19;5065254;28;20207;-72
2022/08/05 00:05:04;;;;;;;6.53;5.00;;;;;;;24.03;66.60;97692.53;5063601;28;20212;-75
2022/08/05 00:07:31;;;;;;;5.57;5.00;;;;;;;24.09;66.09;97694.44;5061697;28;20222;-74
2022/08/05 00:09:57;;;;;;;5.50;5.00;;;;;;;24.14;65.94;97703.59;5061324;28;20674;-73
2022/08/05 00:12:24;;;;;;;5.80;4.88;;;;;;;24.21;63.84;97693.63;5065077;28;20222;-73
2022/08/05 00:14:52;;;;;;;5.22;4.72;;;;;;;24.25;63.97;97694.91;5064815;28;20215;-73
2022/08/05 00:17:18;;;;;;;5.07;4.60;;;;;;;24.26;63.48;97685.75;5061210;28;20208;-74
2022/08/05 00:19:45;;;;;;;4.63;4.18;;;;;;;24.34;62.07;97684.75;5059270;28;20223;-73
2022/08/05 00:22:11;;;;;;;4.80;4.40;;;;;;;24.31;63.02;97696.81;5049225;28;20624;-73
2022/08/05 00:24:38;;;;;;;6.18;4.72;;;;;;;24.31;62.83;97699.50;5064826;28;20216;-73
2022/08/05 00:27:05;;;;;;;4.78;4.38;;;;;;;24.32;62.66;97706.56;5052571;28;20211;-73
2022/08/05 00:29:31;;;;;;;4.68;4.28;;;;;;;24.27;63.14;97703.63;5060988;28;20231;-73
2022/08/05 00:31:59;;;;;;;5.13;4.53;;;;;;;24.24;63.41;97706.75;5063847;28;20221;-74
2022/08/05 00:34:25;;;;;;;4.87;4.47;;;;;;;24.17;63.64;97700.50;5064228;28;20734;-73
2022/08/05 00:36:52;;;;;;;4.50;4.10;;;;;;;24.13;63.32;97704.63;5060893;28;20208;-73
2022/08/05 00:39:18;;;;;;;5.22;4.60;;;;;;;24.18;62.49;97718.34;5060833;28;20211;-73
2022/08/05 00:41:46;;;;;;;4.30;3.95;;;;;;;24.15;62.42;97710.63;5063789;28;20244;-73
2022/08/05 00:44:13;;;;;;;4.63;4.23;;;;;;;24.15;62.87;97726.84;5064558;28;20215;-73
2022/08/05 00:46:40;;;;;;;4.90;4.40;;;;;;;24.14;63.16;97727.06;5059670;28;20220;-73
2022/08/05 00:49:07;;;;;;;4.43;4.03;;;;;;;24.14;63.00;97735.97;5060594;28;20243;-73
2022/08/05 00:51:35;;;;;;;4.47;4.07;;;;;;;24.10;63.09;97740.13;5063728;28;20586;-73
2022/08/05 00:54:02;;;;;;;4.85;4.40;;;;;;;24.06;63.26;97744.25;5064533;28;20679;-73
2022/08/05 00:56:28;;;;;;;4.90;4.40;;;;;;;24.06;63.23;97752.34;5061272;28;20208;-74
2022/08/05 00:58:55;;;;;;;4.50;3.93;;;;;;;24.24;55.26;97747.25;5060259;28;20687;-73
2022/08/05 01:01:21;;;;;;;3.77;3.37;;;;;;;24.43;52.39;97745.66;5063037;28;20227;-74
2022/08/05 01:03:48;;;;;;;3.30;3.00;;;;;;;24.59;50.20;97757.00;5064152;28;20211;-74
2022/08/05 01:06:16;;;;;;;2.92;2.60;;;;;;;24.79;48.93;97767.88;5061434;28;20226;-72
2022/08/05 01:08:42;;;;;;;3.27;2.90;;;;;;;24.83;48.63;97763.72;5060034;28;20236;-73
2022/08/05 01:11:13;;;;;;;6.40;3.10;;;;;;;24.85;48.53;97762.50;5061961;28;20238;-72
2022/08/05 01:13:47;;;;;;;3.70;2.65;;;;;;;24.76;49.39;97760.19;5063334;28;20215;-72
2022/08/05 01:16:21;;;;;;;3.27;2.50;;;;;;;24.73;49.66;97757.88;5052085;28;20212;-73
2022/08/05 01:18:53;;;;;;;3.40;2.50;;;;;;;24.58;50.29;97766.16;5060376;28;20222;-72
2022/08/05 01:21:42;;;;;;;3.10;2.80;;;;;;;24.57;50.71;97771.75;5063722;28;20743;-71
2022/08/05 01:24:18;;;;;;;5.53;3.10;;;;;;;24.53;51.19;97782.09;5053277;28;20214;-71
2022/08/05 01:26:59;;;;;;;4.82;2.88;;;;;;;24.44;51.76;97780.59;5061224;28;20216;-74
2022/08/05 01:29:34;;;;;;;3.67;2.97;;;;;;;24.39;52.54;97784.94;5063978;28;20239;-73
2022/08/05 01:32:06;;;;;;;4.00;2.80;;;;;;;24.31;53.34;97791.34;5052490;28;20208;-74
2022/08/05 01:34:38;;;;;;;3.97;3.10;;;;;;;24.29;53.40;97781.78;5060742;28;20215;-74
2022/08/05 01:37:09;;;;;;;3.63;2.70;;;;;;;24.25;54.03;97785.94;5063842;28;20219;-71
2022/08/05 01:39:38;;;;;;;3.30;2.50;;;;;;;24.20;55.03;97791.09;5053549;28;20208;-71
2022/08/05 01:42:08;;;;;;;3.93;2.67;;;;;;;24.19;55.37;97797.53;5059997;28;20227;-74
2022/08/05 01:44:37;;;;;;;6.47;3.10;;;;;;;24.14;56.32;97814.31;5062114;28;20337;-71
2022/08/05 01:47:05;;;;;;;3.30;2.70;;;;;;;24.15;57.34;97815.97;5063789;28;20219;-72
2022/08/05 01:49:33;;;;;;;4.03;2.77;;;;;;;24.06;58.08;97822.56;5060664;28;20235;-73
2022/08/05 01:52:02;;;;;;;3.47;2.60;;;;;;;24.03;59.10;97814.03;5060042;28;20216;-74
2022/08/05 01:54:35;;;;;;;4.80;3.07;;;;;;;24.07;59.03;97818.00;5062446;28;20219;-72
2022/08/05 01:57:04;;;;;;;4.87;2.53;;;;;;;24.15;59.52;97820.53;5063812;28;20589;-72
2022/08/05 01:59:33;;;;;;;3.53;2.40;;;;;;;24.10;60.50;97821.16;5051917;28;20585;-73
2022/08/05 02:02:03;;;;;;;4.33;2.80;;;;;;;24.11;61.05;97820.13;5059950;28;20226;-71
2022/08/05 02:04:35;;;;;;;4.13;2.90;;;;;;;24.09;61.48;97821.34;5047502;28;20221;-71
2022/08/05 02:07:02;;;;;;;4.32;2.67;;;;;;;24.01;62.32;97816.09;5062730;28;20219;-71
2022/08/05 02:09:29;;;;;;;4.33;2.50;;;;;;;23.91;62.64;97802.94;5059537;28;20243;-71
2022/08/05 02:12:01;;;;;;;3.33;2.83;;;;;;;23.81;63.31;97813.22;5060120;28;20216;-71
2022/08/05 02:14:32;;;;;;;5.67;2.83;;;;;;;23.73;63.95;97818.78;5063871;28;20261;-72
2022/08/05 02:17:05;;;;;;;3.73;2.73;;;;;;;23.71;64.44;97823.50;5061887;28;20211;-73
2022/08/05 02:19:34;;;;;;;3.23;2.93;;;;;;;23.65;64.71;97818.88;5060096;28;20588;-73
2022/08/05 02:22:05;;;;;;;4.07;2.63;;;;;;;23.58;65.62;97819.88;5062373;28;20244;-74
2022/08/05 02:24:36;;;;;;;3.67;2.67;;;;;;;23.49;66.93;97823.72;5063631;28;20216;-73
2022/08/05 02:27:06;;;;;;;3.37;2.60;;;;;;;23.43;67.23;97828.06;5051336;28;20685;-71
2022/08/05 02:29:35;;;;;;;3.77;2.60;;;;;;;23.41;67.58;97823.88;5061363;28;20235;-71
2022/08/05 02:32:08;;;;;;;4.93;2.67;;;;;;;23.39;67.80;97818.66;5051963;28;20576;-72
2022/08/05 02:34:35;;;;;;;3.33;2.70;;;;;;;23.41;67.36;97824.69;5065872;28;20211;-72
2022/08/05 02:37:05;;;;;;;5.40;3.10;;;;;;;23.40;67.87;97823.03;5062932;28;20224;-72
2022/08/05 02:39:36;;;;;;;4.60;2.90;;;;;;;23.31;68.46;97829.59;5057249;28;20212;-72
2022/08/05 02:42:05;;;;;;;3.57;2.90;;;;;;;23.31;68.45;97829.59;5066542;28;21187;-72
2022/08/05 02:44:36;;;;;;;5.37;3.00;;;;;;;23.28;69.02;97840.75;5064814;28;20298;-72
2022/08/05 02:47:05;;;;;;;3.13;2.70;;;;;;;23.26;69.82;97845.50;5062737;28;20216;-72
2022/08/05 02:49:35;;;;;;;4.93;3.00;;;;;;;23.27;69.67;97838.25;5065397;28;20238;-72
2022/08/05 02:52:03;;;;;;;3.13;2.80;;;;;;;23.28;69.68;97829.97;5066590;28;20341;-72
2022/08/05 02:54:32;;;;;;;5.13;2.93;;;;;;;23.27;69.42;97831.00;5063237;28;20341;-72
2022/08/05 02:56:59;;;;;;;5.80;2.33;;;;;;;23.24;69.19;97825.16;5061118;28;20211;-72
2022/08/05 02:59:28;;;;;;;3.20;2.90;;;;;;;23.19;69.27;97833.81;5065643;28;20226;-72
2022/08/05 03:01:59;;;;;;;3.60;2.43;;;;;;;23.20;69.33;97834.66;5066141;28;20218;-72
2022/08/05 03:04:28;;;;;;;3.67;3.03;;;;;;;23.20;69.45;97823.84;5054527;28;20233;-72
2022/08/05 03:06:55;;;;;;;3.63;3.27;;;;;;;23.21;69.91;97820.13;5062336;28;20694;-72
2022/08/05 03:09:22;;;;;;;3.43;2.97;;;;;;;23.20;69.92;97827.41;5051096;28;20235;-72
2022/08/05 03:11:50;;;;;;;5.77;3.20;;;;;;;23.24;69.44;97842.19;5066171;28;20575;-72
2022/08/05 03:14:16;;;;;;;6.13;3.07;;;;;;;23.30;69.00;97849.50;5062200;28;20215;-72
2022/08/05 03:16:43;;;;;;;3.47;2.67;;;;;;;23.28;69.01;97856.94;5062399;28;20215;-72
2022/08/05 03:19:09;;;;;;;4.07;2.60;;;;;;;23.24;69.41;97849.41;5066009;28;20222;-72
2022/08/05 03:21:37;;;;;;;5.00;2.93;;;;;;;23.21;69.37;97856.03;5064336;28;20657;-72
2022/08/05 03:24:05;;;;;;;4.93;3.23;;;;;;;23.17;69.82;97849.34;5054035;28;20216;-72
2022/08/05 03:26:32;;;;;;;3.07;2.70;;;;;;;23.15;70.06;97848.66;5062318;28;20223;-72
2022/08/05 03:28:59;;;;;;;3.67;2.90;;;;;;;23.11;70.68;97860.84;5065632;28;20249;-73
2022/08/05 03:31:26;;;;;;;3.80;2.90;;;;;;;23.10;70.76;97864.59;5065966;28;20387;-73
2022/08/05 03:33:53;;;;;;;3.73;3.10;;;;;;;23.06;71.08;97868.72;5061798;28;20212;-73
2022/08/05 03:36:20;;;;;;;3.17;2.83;;;;;;;23.06;71.35;97857.91;5061788;28;20224;-73
2022/08/05 03:38:47;;;;;;;5.33;3.07;;;;;;;23.06;71.28;97855.22;5062174;28;20556;-74
2022/08/05 03:41:15;;;;;;;7.90;3.20;;;;;;;23.05;71.27;97858.91;5060647;28;20219;-73
2022/08/05 03:43:42;;;;;;;4.33;2.90;;;;;;;23.04;71.30;97859.94;5061921;28;20216;-73
2022/08/05 03:46:10;;;;;;;4.87;2.97;;;;;;;23.01;71.44;97860.34;5061526;28;20213;-71
2022/08/05 03:48:36;;;;;;;4.43;3.00;;;;;;;22.96;71.62;97851.13;5063377;28;20595;-71
2022/08/05 03:51:11;;;;;;;3.00;2.70;;;;;;;22.86;72.19;97851.44;5065393;28;20242;-71
2022/08/05 03:53:41;;;;;;;3.17;2.80;;;;;;;22.78;73.00;97843.47;5048974;28;20211;-71
2022/08/05 03:56:15;;;;;;;5.00;2.93;;;;;;;22.68;73.73;97839.41;5061851;28;20212;-71
2022/08/05 03:58:45;;;;;;;3.50;3.13;;;;;;;22.67;73.78;97841.25;5065010;28;20211;-71
2022/08/05 04:01:14;;;;;;;3.30;3.00;;;;;;;22.68;74.32;97829.47;5063214;28;20250;-71
2022/08/05 04:03:44;;;;;;;4.20;3.03;;;;;;;22.69;74.24;97833.00;5061595;28;20223;-73
2022/08/05 04:06:10;;;;;;;4.57;3.50;;;;;;;22.80;73.67;97838.72;5063372;28;20666;-73
2022/08/05 04:08:37;;;;;;;3.80;3.20;;;;;;;22.90;72.79;97846.50;5064778;28;20222;-71
2022/08/05 04:11:06;;;;;;;3.80;3.50;;;;;;;22.96;72.64;97856.53;5062752;28;20338;-71
2022/08/05 04:13:35;;;;;;;5.10;3.50;;;;;;;22.99;72.19;97846.19;5060550;28;20216;-71
2022/08/05 04:16:01;;;;;;;5.17;3.53;;;;;;;22.98;72.70;97839.16;5062926;28;20219;-71
2022/08/05 04:18:28;;;;;;;4.60;3.27;;;;;;;22.93;73.14;97836.19;5064641;28;20715;-71
2022/08/05 04:20:56;;;;;;;5.70;3.33;;;;;;;22.88;73.25;97844.03;5062617;28;20328;-71
2022/08/05 04:23:24;;;;;;;5.40;3.37;;;;;;;22.89;73.51;97855.63;5061092;28;20246;-71
2022/08/05 04:25:51;;;;;;;5.40;3.20;;;;;;;22.95;72.80;97877.28;5063068;28;20212;-71
2022/08/05 04:28:18;;;;;;;3.70;3.20;;;;;;;23.04;72.45;97886.91;5064858;28;20218;-71
2022/08/05 04:30:46;;;;;;;6.30;3.50;;;;;;;23.14;72.00;97902.78;5062413;28;20245;-71
2022/08/05 04:33:14;;;;;;;4.90;3.43;;;;;;;23.23;71.19;97918.69;5060803;28;20670;-71
2022/08/05 04:35:40;;;;;;;5.73;3.60;;;;;;;23.27;71.05;97935.31;5063033;28;20558;-71
2022/08/05 04:38:07;;;;;;;4.63;3.33;;;;;;;23.27;71.13;97951.50;5064613;28;20218;-73
2022/08/05 04:40:35;;;;;;;4.43;3.30;;;;;;;23.24;71.66;97952.75;5060679;28;20214;-72
2022/08/05 04:43:01;;;;;;;4.73;3.33;;;;;;;23.18;71.92;97964.28;5060984;28;20592;-72
2022/08/05 04:45:28;;;;;;;4.23;3.33;;;;;;;23.14;72.26;97968.34;5062327;28;20670;-73
2022/08/05 04:48:03;;;;;;;5.23;3.40;;;;;;;23.13;72.36;97982.84;5064520;28;20225;-73
2022/08/05 04:50:30;;;;;;;3.97;3.53;;;;;;;23.10;72.94;97983.22;5061101;28;20235;-72
2022/08/05 04:52:56;;;;;;;3.73;3.20;;;;;;;23.09;72.96;98000.41;5060529;28;20218;-72
2022/08/05 04:55:23;;;;;;;6.07;4.03;;;;;;;23.12;73.08;98002.75;5063228;28;20234;-72
2022/08/05 04:57:49;;;;;;;5.17;3.30;;;;;;;23.14;72.81;98000.69;5064056;28;20221;-72
2022/08/05 05:00:16;;;;;;;5.50;3.50;;;;;;;23.17;72.98;98004.91;5061974;28;20257;-72
2022/08/05 05:02:43;;;;;;;6.13;4.00;;;;;;;23.28;72.39;98007.13;5060435;28;20216;-72
2022/08/05 05:05:11;;;;;;;5.43;3.93;;;;;;;23.36;71.67;98026.72;5062346;28;20238;-72
2022/08/05 05:07:37;;;;;;;5.87;3.60;;;;;;;23.39;71.79;98047.94;5061622;28;20207;-72
2022/08/05 05:10:05;;;;;;;8.83;3.87;;;;;;;23.47;71.59;98061.31;5060253;28;20231;-71
2022/08/05 05:12:31;;;;;;;3.83;3.53;;;;;;;23.47;71.74;98047.81;5060575;28;20219;-72
2022/08/05 05:14:58;;;;;;;4.67;3.90;;;;;;;23.58;71.28;98047.34;5062157;28;20208;-71
2022/08/05 05:17:24;;;;;;;7.57;4.33;;;;;;;23.71;71.09;98058.28;5064196;28;20214;-72
2022/08/05 05:19:53;;;;;;;7.03;5.00;;;;;;;23.82;70.71;98060.50;5062051;28;20221;-72
2022/08/05 05:22:21;;;;;;;6.43;4.57;;;;;;;23.87;70.71;98066.22;5060362;28;20239;-73
2022/08/05 05:24:48;;;;;;;7.30;4.90;;;;;;;24.04;70.29;98073.06;5061921;28;20212;-71
2022/08/05 05:27:14;;;;;;;11.10;4.73;;;;;;;24.16;69.65;98074.22;5064127;28;20214;-72
2022/08/05 05:29:41;;;;;;;6.10;4.77;;;;;;;24.27;69.22;98070.97;5061921;28;20672;-72
2022/08/05 05:32:07;;;;;;;6.07;4.80;;;;;;;24.40;68.60;98081.09;5058602;28;20223;-72
2022/08/05 05:34:34;;;;;;;8.90;5.33;;;;;;;24.36;68.65;98075.25;5061331;28;20226;-71
2022/08/05 05:37:01;;;;;;;9.20;5.33;;;;;;;24.51;68.06;98077.88;5063697;28;20226;-72
2022/08/05 05:39:29;;;;;;;7.87;5.23;;;;;;;24.97;66.68;98089.91;5055799;28;20206;-73
2022/08/05 05:41:55;;;;;;;12.97;4.77;;;;;;;25.65;63.59;98079.09;5059919;28;20222;-72
2022/08/05 05:44:22;;;;;;;7.40;4.70;;;;;;;26.24;61.43;98089.16;5060888;28;20208;-71
2022/08/05 05:46:48;;;;;;;6.03;4.00;;;;;;;26.68;59.29;98094.88;5063821;28;20219;-72
2022/08/05 05:49:15;;;;;;;9.67;4.40;;;;;;;27.20;57.85;98099.47;5062650;28;20228;-72
2022/08/05 05:51:41;;;;;;;8.45;4.47;;;;;;;27.64;55.99;98095.00;5060101;28;20586;-72
2022/08/05 05:54:08;;;;;;;9.73;5.10;;;;;;;27.84;54.08;98109.34;5060187;28;20223;-72
2022/08/05 05:56:35;;;;;;;5.85;4.53;;;;;;;27.89;53.71;98106.84;5063937;28;20213;-72
2022/08/05 05:59:03;;;;;;;5.82;3.95;;;;;;;28.03;52.90;98116.59;5061448;28;20216;-72
2022/08/05 06:01:30;;;;;;;7.30;3.92;;;;;;;27.83;52.54;98105.78;5054559;28;20670;-70
2022/08/05 06:03:57;;;;;;;3.45;3.10;;;;;;;28.00;52.22;98114.31;5061517;28;20589;-73
2022/08/05 06:06:23;;;;;;;3.70;3.40;;;;;;;28.06;51.54;98119.69;5066128;28;20211;-73
2022/08/05 06:08:50;;;;;;;7.78;3.42;;;;;;;28.25;50.77;98128.81;5065751;28;20216;-70
2022/08/05 06:11:16;;;;;;;3.58;3.20;;;;;;;28.54;50.40;98122.81;5062315;28;20239;-69
2022/08/05 06:13:44;;;;;;;5.72;3.72;;;;;;;28.89;50.14;98121.28;5062657;28;20212;-69
2022/08/05 06:16:10;;;;;;;5.38;3.40;;;;;;;29.34;49.01;98120.09;5050638;28;20302;-69
2022/08/05 06:18:37;;;;;;;8.80;3.67;;;;;;;29.44;48.24;98120.41;5065633;28;20866;-70
2022/08/05 06:21:04;;;;;;;5.63;3.30;;;;;;;29.40;48.21;98113.75;5053459;28;20212;-70
2022/08/05 06:23:30;;;;;;;6.88;3.47;;;;;;;29.54;47.44;98115.31;5061290;28;20236;-69
2022/08/05 06:25:57;;;;;;;3.97;3.58;;;;;;;29.31;48.68;98110.50;5063577;28;20220;-69
2022/08/05 06:28:23;;;;;;;3.72;3.17;;;;;;;29.58;48.08;98116.53;5065924;28;20216;-69
2022/08/05 06:30:51;;;;;;;4.10;3.10;;;;;;;29.69;47.71;98097.53;5062249;28;20234;-69
2022/08/05 06:33:18;;;;;;;5.15;3.38;;;;;;;30.05;46.76;98091.22;5062337;28;20212;-69
2022/08/05 06:35:44;;;;;;;4.53;3.40;;;;;;;30.34;46.16;98099.44;5064754;28;20211;-69
2022/08/05 06:38:11;;;;;;;5.07;3.40;;;;;;;30.40;45.83;98105.88;5065658;28;20208;-69
2022/08/05 06:40:37;;;;;;;3.50;3.20;;;;;;;30.56;45.32;98116.13;5062359;28;20223;-69
2022/08/05 06:43:04;;;;;;;4.03;3.05;;;;;;;30.55;45.72;98114.44;5061895;28;20216;-69
2022/08/05 06:45:30;;;;;;;4.40;3.50;;;;;;;30.52;45.71;98113.03;5064042;28;20216;-69
2022/08/05 06:47:58;;;;;;;5.03;3.20;;;;;;;30.43;45.68;98119.03;5065152;28;20211;-69
2022/08/05 06:50:25;;;;;;;4.80;3.40;;;;;;;29.83;46.66;98115.38;5062793;28;20597;-69
2022/08/05 06:52:52;;;;;;;5.03;3.45;;;;;;;29.00;48.95;98117.91;5060163;28;20585;-70
2022/08/05 06:55:18;;;;;;;3.95;3.63;;;;;;;28.35;50.16;98112.84;5062096;28;20220;-67
2022/08/05 06:57:45;;;;;;;4.68;3.40;;;;;;;28.10;51.40;98117.38;5062545;28;20297;-66
2022/08/05 07:00:12;;;;;;;3.40;3.08;;;;;;;27.89;52.21;98120.41;5061988;28;20222;-67
2022/08/05 07:02:42;;;;;;;3.85;3.33;;;;;;;27.76;53.06;98123.16;5060501;28;20212;-67
2022/08/05 07:05:10;;;;;;;3.70;3.40;;;;;;;27.49;53.17;98132.41;5062709;28;20262;-68
2022/08/05 07:07:37;;;;;;;5.55;3.50;;;;;;;27.25;54.32;98129.53;5065108;28;20224;-67
2022/08/05 07:10:04;;;;;;;4.30;3.67;;;;;;;27.12;54.70;98135.75;5062253;28;20217;-66
2022/08/05 07:17:58;;;;;;;4.15;3.42;;;;;;;26.90;56.58;98153.31;5060954;28;20262;-66
2022/08/05 07:20:26;;;;;;;5.55;3.28;;;;;;;26.99;55.32;98168.31;5060015;28;20219;-66
2022/08/05 07:22:53;;;;;;;4.32;3.20;;;;;;;27.08;54.45;98167.91;5063471;28;20240;-66
2022/08/05 07:25:19;;;;;;;4.32;3.53;;;;;;;27.21;55.15;98175.25;5064681;28;20207;-66
2022/08/05 07:27:46;;;;;;;5.47;3.00;;;;;;;27.36;53.36;98159.56;5061755;28;20397;-66
2022/08/05 07:30:13;;;;;;;3.20;2.95;;;;;;;27.33;53.60;98153.72;5060794;28;20219;-66
2022/08/05 07:32:39;;;;;;;3.42;3.13;;;;;;;27.35;53.35;98160.63;5062869;28;20238;-67
2022/08/05 07:35:07;;;;;;;3.22;2.92;;;;;;;27.52;53.28;98161.84;5064314;28;20219;-67
2022/08/05 07:37:35;;;;;;;4.30;2.83;;;;;;;27.77;52.26;98165.59;5061904;28;20219;-67
2022/08/05 07:40:02;;;;;;;3.25;3.00;;;;;;;27.97;51.58;98166.34;5053729;28;20211;-67
2022/08/05 07:42:29;;;;;;;5.43;3.25;;;;;;;28.09;50.84;98168.19;5062296;28;20634;-68
2022/08/05 07:44:55;;;;;;;5.13;3.33;;;;;;;28.03;50.58;98165.50;5062945;28;20207;-67
2022/08/05 07:47:22;;;;;;;4.03;2.83;;;;;;;28.05;50.99;98157.94;5062288;28;20216;-68
2022/08/05 07:49:51;;;;;;;3.42;3.10;;;;;;;28.10;50.77;98163.59;5060624;28;20212;-67
2022/08/05 07:52:17;;;;;;;3.67;3.08;;;;;;;28.11;51.23;98166.09;5062049;28;20240;-68
2022/08/05 07:54:45;;;;;;;3.40;3.10;;;;;;;28.18;50.56;98160.63;5064109;28;20293;-67
2022/08/05 07:57:12;;;;;;;3.17;2.88;;;;;;;28.37;50.08;98162.47;5061831;28;20681;-67
2022/08/05 07:59:38;;;;;;;4.00;2.75;;;;;;;28.54;50.43;98160.88;5060314;28;20220;-67
2022/08/05 08:02:06;;;;;;;4.43;2.80;;;;;;;28.73;47.97;98165.38;5061498;28;20220;-67
2022/08/05 08:04:32;;;;;;;3.15;2.60;;;;;;;28.77;46.76;98158.44;5063629;28;20246;-67
2022/08/05 08:06:59;;;;;;;2.42;2.22;;;;;;;28.60;44.62;98173.59;5062214;28;20581;-68
2022/08/05 08:09:26;;;;;;;2.78;2.17;;;;;;;28.46;46.11;98167.44;5059795;28;20355;-68
2022/08/05 08:11:54;;;;;;;3.00;2.15;;;;;;;28.51;46.17;98167.59;5059418;28;20247;-67
2022/08/05 08:14:20;;;;;;;3.00;2.10;;;;;;;28.48;44.48;98157.16;5064016;28;20215;-68
2022/08/05 08:16:47;;;;;;;2.10;1.90;;;;;;;28.51;43.74;98166.75;5062232;28;20703;-69
2022/08/05 08:19:13;;;;;;;2.95;2.10;;;;;;;28.35;44.53;98162.63;5060345;28;20212;-68
2022/08/05 08:21:41;;;;;;;2.40;2.20;;;;;;;28.31;45.26;98171.44;5059799;28;20212;-68
2022/08/05 08:24:08;;;;;;;2.85;2.25;;;;;;;28.41;44.85;98174.53;5051758;28;20674;-68
2022/08/05 08:26:34;;;;;;;2.75;2.03;;;;;;;28.19;45.11;98174.00;5059312;28;20251;-68
2022/08/05 08:29:02;;;;;;;2.42;2.22;;;;;;;28.25;45.04;98162.25;5059553;28;20212;-67
2022/08/05 08:31:29;;;;;;;2.58;2.30;;;;;;;28.42;44.31;98168.09;5060223;28;20279;-67
2022/08/05 08:33:55;;;;;;;3.17;2.40;;;;;;;28.36;44.93;98163.47;5063149;28;20238;-68
2022/08/05 08:36:22;;;;;;;3.58;2.28;;;;;;;28.31;45.48;98155.13;5062998;28;20211;-67
2022/08/05 08:38:48;;;;;;;2.75;2.15;;;;;;;28.34;45.42;98160.13;5057036;28;20797;-67
2022/08/05 08:41:16;;;;;;;2.78;2.10;;;;;;;28.37;45.29;98165.19;5059516;28;20215;-67
2022/08/05 08:43:44;;;;;;;3.50;2.40;;;;;;;28.28;45.14;98144.69;5047813;28;20223;-67
2022/08/05 08:46:12;;;;;;;2.97;2.30;;;;;;;28.35;46.04;98140.03;5061275;28;20215;-67
2022/08/05 08:48:44;;;;;;;3.22;2.22;;;;;;;28.47;45.38;98133.75;5059488;28;20223;-67
2022/08/05 08:51:11;;;;;;;2.65;2.20;;;;;;;28.71;45.08;98129.38;5060080;28;20309;-67
2022/08/05 08:53:39;;;;;;;2.80;1.95;;;;;;;28.95;43.41;98136.78;5063156;28;20211;-67
2022/08/05 08:56:06;;;;;;;3.25;2.33;;;;;;;28.92;43.32;98139.91;5062144;28;20242;-68
2022/08/05 08:58:33;;;;;;;2.60;2.10;;;;;;;28.87;44.12;98134.28;5059127;28;20219;-67
2022/08/05 09:01:00;;;;;;;2.67;2.47;;;;;;;29.03;43.59;98133.78;5059852;28;20307;-66
2022/08/05 09:03:28;;;;;;;2.22;1.92;;;;;;;29.14;43.51;98139.34;5063062;28;20215;-66
2022/08/05 09:05:55;;;;;;;2.53;1.92;;;;;;;29.19;42.69;98135.94;5060185;28;20212;-66
2022/08/05 09:08:22;;;;;;;2.85;2.08;;;;;;;29.07;42.48;98124.09;5058967;28;20223;-67
2022/08/05 09:10:50;;;;;;;2.25;2.05;;;;;;;29.07;42.87;98129.56;5059641;28;20220;-67
2022/08/05 09:13:18;;;;;;;3.13;2.15;;;;;;;29.07;43.58;98118.66;5062820;28;20688;-66
2022/08/05 09:15:45;;;;;;;2.65;2.13;;;;;;;29.02;43.77;98116.63;5062246;28;20245;-67
2022/08/05 09:18:11;;;;;;;2.63;2.15;;;;;;;29.18;43.82;98107.91;5058829;28;20220;-67
2022/08/05 09:20:40;;;;;;;3.03;2.40;;;;;;;29.39;42.65;98106.63;5059519;28;21681;-67
2022/08/05 09:23:13;;;;;;;2.40;2.17;;;;;;;29.57;42.19;98099.34;5062532;28;20250;-67
2022/08/05 09:25:41;;;;;;;2.60;2.20;;;;;;;29.72;41.94;98096.25;5060824;28;20215;-67
2022/08/05 09:28:13;;;;;;;2.92;2.30;;;;;;;29.81;42.22;98100.31;5058624;28;20220;-67
2022/08/05 09:30:43;;;;;;;2.38;2.03;;;;;;;29.89;41.36;98091.84;5060731;28;20212;-67
2022/08/05 09:33:09;;;;;;;3.03;2.40;;;;;;;29.82;41.27;98086.47;5060829;28;20215;-67
2022/08/05 09:35:36;;;;;;;2.85;2.10;;;;;;;29.76;41.66;98087.38;5059666;28;20215;-67
2022/08/05 09:38:07;;;;;;;2.90;2.40;;;;;;;29.76;41.15;98081.94;5061876;28;20208;-67
2022/08/05 09:40:36;;;;;;;1.98;1.85;;;;;;;29.88;40.86;98091.00;5059008;28;20223;-67
2022/08/05 09:43:05;;;;;;;4.30;2.30;;;;;;;30.02;41.41;98086.22;5066698;28;20224;-67
2022/08/05 09:45:41;;;;;;;2.55;2.20;;;;;;;30.23;40.19;98077.56;5063022;28;20682;-66
2022/08/05 09:48:25;;;;;;;2.67;1.90;;;;;;;30.06;40.66;98073.78;5061327;28;20215;-67
2022/08/05 09:50:53;;;;;;;2.33;2.10;;;;;;;29.99;41.13;98075.78;5063970;28;20215;-68
2022/08/05 09:53:21;;;;;;;2.67;2.30;;;;;;;29.90;41.30;98075.25;5062934;28;20215;-67
2022/08/05 09:55:52;;;;;;;2.53;2.15;;;;;;;29.97;41.69;98067.00;5061829;28;20589;-67
2022/08/05 09:58:19;;;;;;;2.45;2.20;;;;;;;30.05;41.09;98069.41;5065605;28;20210;-67
2022/08/05 10:00:57;;;;;;;3.67;2.10;;;;;;;30.16;40.92;98065.94;5064461;28;20665;-68
2022/08/05 10:03:24;;;;;;;2.20;2.00;;;;;;;30.20;39.94;98067.97;5055072;28;20251;-68
2022/08/05 10:06:01;;;;;;;1.92;1.80;;;;;;;30.28;40.27;98064.09;5062551;28;20579;-69
2022/08/05 10:08:29;;;;;;;2.10;1.90;;;;;;;30.36;39.12;98069.19;5066135;28;20237;-69
2022/08/05 10:10:56;;;;;;;2.20;2.00;;;;;;;30.54;39.30;98074.59;5064405;28;20211;-69
2022/08/05 10:13:31;;;;;;;1.88;1.77;;;;;;;30.58;39.12;98070.34;5062012;28;20227;-69
2022/08/05 10:15:59;;;;;;;2.05;1.90;;;;;;;30.46;39.22;98074.94;5064650;28;20244;-69
2022/08/05 10:18:30;;;;;;;2.10;1.90;;;;;;;30.42;39.24;98071.00;5065895;28;20629;-69
2022/08/05 10:20:59;;;;;;;2.08;1.77;;;;;;;30.59;39.01;98069.28;5062503;28;20226;-68
2022/08/05 10:23:30;;;;;;;2.10;1.90;;;;;;;30.55;39.25;98068.91;5062226;28;20570;-69
2022/08/05 10:25:57;;;;;;;3.40;1.90;;;;;;;30.62;38.72;98060.63;5052882;28;20222;-69
2022/08/05 10:28:24;;;;;;;3.20;2.08;;;;;;;30.76;37.96;98062.09;5061487;28;20219;-68
2022/08/05 10:30:52;;;;;;;2.47;1.65;;;;;;;30.69;37.79;98061.38;5053868;28;20563;-69
2022/08/05 10:33:19;;;;;;;2.30;2.10;;;;;;;30.65;38.52;98060.19;5061575;28;20239;-69
2022/08/05 10:35:46;;;;;;;2.20;2.00;;;;;;;30.76;38.73;98064.84;5065144;28;20679;-69
2022/08/05 10:38:13;;;;;;;2.05;1.92;;;;;;;30.86;38.36;98059.63;5065571;28;20216;-69
2022/08/05 10:40:47;;;;;;;2.72;2.10;;;;;;;30.88;38.02;98065.69;5059287;28;20212;-69
2022/08/05 10:43:28;;;;;;;2.50;2.30;;;;;;;30.95;38.19;98061.78;5061774;28;20219;-69
2022/08/05 10:45:57;;;;;;;1.83;1.63;;;;;;;31.03;37.74;98057.84;5065182;28;20681;-70
2022/08/05 10:48:31;;;;;;;2.80;1.95;;;;;;;31.02;38.13;98059.75;5061997;28;20215;-69
2022/08/05 10:50:59;;;;;;;3.15;2.20;;;;;;;31.14;37.47;98054.28;5061599;28;20215;-68
2022/08/05 10:53:41;;;;;;;4.03;2.10;;;;;;;31.09;37.85;98062.38;5063129;28;20242;-69
2022/08/05 10:56:13;;;;;;;3.60;2.25;;;;;;;31.01;38.67;98049.06;5063316;28;20687;-68
2022/08/05 10:59:02;;;;;;;3.00;2.00;;;;;;;30.96;38.72;98052.53;5061507;28;20586;-69
2022/08/05 11:01:30;;;;;;;2.25;1.95;;;;;;;30.95;38.26;98044.56;5051503;28;20208;-69
2022/08/05 11:04:01;;;;;;;2.25;2.03;;;;;;;30.97;38.50;98050.59;5063817;28;20237;-69
2022/08/05 11:06:28;;;;;;;3.95;1.90;;;;;;;31.07;37.98;98054.44;5053544;28;20216;-69
2022/08/05 11:09:17;;;;;;;2.38;2.00;;;;;;;31.06;37.54;98055.47;5054759;28;20212;-69
2022/08/05 11:11:46;;;;;;;2.17;1.90;;;;;;;31.21;37.40;98055.88;5064260;28;20364;-68
2022/08/05 11:14:22;;;;;;;2.30;2.10;;;;;;;31.15;37.32;98059.53;5061219;28;20239;-70
2022/08/05 11:17:22;;;;;;;2.65;2.03;;;;;;;31.00;37.90;98059.16;5062899;28;20208;-69
2022/08/05 11:19:52;;;;;;;3.03;2.20;;;;;;;31.12;38.06;98061.91;5061673;28;20215;-69
2022/08/05 11:22:38;;;;;;;2.17;1.98;;;;;;;31.20;37.61;98059.69;5060139;28;20244;-69
2022/08/05 11:25:30;;;;;;;2.30;1.80;;;;;;;31.32;37.84;98062.41;5051422;28;20217;-69
2022/08/05 11:28:36;;;;;;;2.00;1.80;;;;;;;31.49;37.82;98063.34;5053362;28;20226;-69
2022/08/05 11:31:26;;;;;;;2.20;2.00;;;;;;;31.59;37.81;98052.63;5052412;28;20219;-69
2022/08/05 11:33:55;;;;;;;1.90;1.80;;;;;;;31.72;37.25;98057.88;5053659;28;20578;-69
2022/08/05 11:36:40;;;;;;;3.45;2.00;;;;;;;31.82;36.85;98074.47;5061313;28;20282;-69
2022/08/05 11:39:07;;;;;;;1.90;1.80;;;;;;;31.74;36.74;98062.03;5059859;28;20316;-69
2022/08/05 11:41:35;;;;;;;2.20;2.00;;;;;;;31.70;37.23;98060.81;5060754;28;20350;-69
2022/08/05 11:44:06;;;;;;;2.30;2.10;;;;;;;31.78;36.99;98052.25;5060456;28;20216;-69
2022/08/05 11:46:34;;;;;;;2.90;2.45;;;;;;;31.98;36.49;98063.63;5064031;28;20212;-68